sensor_id;sensor_type;location;lat;lon;timestamp;pressure;altitude;pressure_sealevel;temperature;humidity
43707;BME280;61348;53.392;-6.248;2023-06-22T00:00:02;101136.00;;;18.85;70.64
43707;BME280;61348;53.392;-6.248;2023-06-22T00:02:55;101139.25;;;18.88;70.54
43707;BME280;61348;53.392;-6.248;2023-06-22T00:05:42;101138.03;;;18.89;69.72
43707;BME280;61348;53.392;-6.248;2023-06-22T00:08:29;101136.81;;;18.86;68.77
43707;BME280;61348;53.392;-6.248;2023-06-22T00:11:16;101139.19;;;18.80;67.68
43707;BME280;61348;53.392;-6.248;2023-06-22T00:14:04;101139.53;;;18.72;67.18
43707;BME280;61348;53.392;-6.248;2023-06-22T00:16:51;101132.66;;;18.62;66.67
43707;BME280;61348;53.392;-6.248;2023-06-22T00:19:46;101132.63;;;18.55;65.93
43707;BME280;61348;53.392;-6.248;2023-06-22T00:22:34;101140.59;;;18.50;65.71
43707;BME280;61348;53.392;-6.248;2023-06-22T00:25:25;101149.72;;;18.43;65.19
43707;BME280;61348;53.392;-6.248;2023-06-22T00:28:13;101153.28;;;18.40;64.84
43707;BME280;61348;53.392;-6.248;2023-06-22T00:31:00;101150.84;;;18.35;64.51
43707;BME280;61348;53.392;-6.248;2023-06-22T00:33:47;101144.41;;;18.31;64.14
43707;BME280;61348;53.392;-6.248;2023-06-22T00:36:35;101152.41;;;18.29;64.03
43707;BME280;61348;53.392;-6.248;2023-06-22T00:39:23;101147.53;;;18.22;63.66
43707;BME280;61348;53.392;-6.248;2023-06-22T00:42:10;101148.31;;;18.19;63.14
43707;BME280;61348;53.392;-6.248;2023-06-22T00:44:57;101147.44;;;18.12;62.98
43707;BME280;61348;53.392;-6.248;2023-06-22T00:47:44;101150.59;;;18.07;62.68
43707;BME280;61348;53.392;-6.248;2023-06-22T00:50:34;101157.75;;;18.01;62.85
43707;BME280;61348;53.392;-6.248;2023-06-22T00:53:22;101160.50;;;17.94;62.85
43707;BME280;61348;53.392;-6.248;2023-06-22T00:56:10;101165.22;;;17.86;62.83
43707;BME280;61348;53.392;-6.248;2023-06-22T00:59:00;101173.16;;;17.81;62.50
43707;BME280;61348;53.392;-6.248;2023-06-22T01:01:49;101174.28;;;17.73;62.56
43707;BME280;61348;53.392;-6.248;2023-06-22T01:04:37;101172.66;;;17.72;62.89
43707;BME280;61348;53.392;-6.248;2023-06-22T01:11:47;101179.75;;;17.62;63.14
43707;BME280;61348;53.392;-6.248;2023-06-22T01:14:04;101188.09;;;17.58;62.93
43707;BME280;61348;53.392;-6.248;2023-06-22T01:16:54;101184.47;;;17.54;62.98
43707;BME280;61348;53.392;-6.248;2023-06-22T01:19:47;101179.53;;;17.48;63.07
43707;BME280;61348;53.392;-6.248;2023-06-22T01:26:19;101179.75;;;17.32;63.55
43707;BME280;61348;53.392;-6.248;2023-06-22T01:29:11;101177.69;;;17.29;63.90
43707;BME280;61348;53.392;-6.248;2023-06-22T01:31:59;101185.25;;;17.25;64.19
43707;BME280;61348;53.392;-6.248;2023-06-22T01:34:49;101185.59;;;17.20;64.56
43707;BME280;61348;53.392;-6.248;2023-06-22T01:37:38;101181.50;;;17.14;64.95
43707;BME280;61348;53.392;-6.248;2023-06-22T01:40:25;101183.88;;;17.12;65.21
43707;BME280;61348;53.392;-6.248;2023-06-22T01:43:13;101190.28;;;17.13;65.63
43707;BME280;61348;53.392;-6.248;2023-06-22T01:46:02;101198.63;;;17.09;66.14
43707;BME280;61348;53.392;-6.248;2023-06-22T01:48:50;101197.44;;;17.10;66.75
43707;BME280;61348;53.392;-6.248;2023-06-22T01:51:37;101208.19;;;17.08;67.03
43707;BME280;61348;53.392;-6.248;2023-06-22T01:54:24;101202.22;;;17.10;67.47
43707;BME280;61348;53.392;-6.248;2023-06-22T01:57:12;101193.84;;;17.10;67.75
43707;BME280;61348;53.392;-6.248;2023-06-22T02:00:02;101194.19;;;17.08;68.15
43707;BME280;61348;53.392;-6.248;2023-06-22T02:02:59;101197.38;;;17.07;68.75
43707;BME280;61348;53.392;-6.248;2023-06-22T02:05:53;101203.78;;;17.07;69.07
43707;BME280;61348;53.392;-6.248;2023-06-22T02:08:47;101209.38;;;17.07;69.41
43707;BME280;61348;53.392;-6.248;2023-06-22T02:11:36;101219.72;;;17.03;69.80
43707;BME280;61348;53.392;-6.248;2023-06-22T02:14:24;101212.06;;;17.00;70.30
43707;BME280;61348;53.392;-6.248;2023-06-22T02:17:12;101210.06;;;16.97;70.21
43707;BME280;61348;53.392;-6.248;2023-06-22T02:20:02;101212.78;;;16.93;70.46
43707;BME280;61348;53.392;-6.248;2023-06-22T02:22:50;101218.72;;;16.92;70.43
43707;BME280;61348;53.392;-6.248;2023-06-22T02:25:37;101215.47;;;16.86;70.81
43707;BME280;61348;53.392;-6.248;2023-06-22T02:28:24;101215.47;;;16.86;70.79
43707;BME280;61348;53.392;-6.248;2023-06-22T02:31:11;101216.66;;;16.85;70.78
43707;BME280;61348;53.392;-6.248;2023-06-22T02:33:59;101221.44;;;16.85;70.53
43707;BME280;61348;53.392;-6.248;2023-06-22T02:36:49;101220.63;;;16.84;70.88
43707;BME280;61348;53.392;-6.248;2023-06-22T02:39:40;101230.25;;;16.87;70.93
43707;BME280;61348;53.392;-6.248;2023-06-22T02:42:27;101228.75;;;16.93;71.03
43707;BME280;61348;53.392;-6.248;2023-06-22T02:45:15;101227.69;;;17.01;71.17
43707;BME280;61348;53.392;-6.248;2023-06-22T02:48:02;101231.78;;;17.07;71.51
43707;BME280;61348;53.392;-6.248;2023-06-22T02:50:49;101230.25;;;17.13;71.73
43707;BME280;61348;53.392;-6.248;2023-06-22T02:53:36;101232.78;;;17.22;72.14
43707;BME280;61348;53.392;-6.248;2023-06-22T02:56:23;101232.88;;;17.29;72.64
43707;BME280;61348;53.392;-6.248;2023-06-22T02:59:12;101236.91;;;17.31;73.29
43707;BME280;61348;53.392;-6.248;2023-06-22T03:01:59;101240.13;;;17.33;73.81
43707;BME280;61348;53.392;-6.248;2023-06-22T03:04:46;101237.00;;;17.38;74.20
43707;BME280;61348;53.392;-6.248;2023-06-22T03:07:36;101235.91;;;17.46;74.77
43707;BME280;61348;53.392;-6.248;2023-06-22T03:10:24;101231.56;;;17.49;74.71
43707;BME280;61348;53.392;-6.248;2023-06-22T03:13:11;101236.41;;;17.52;75.17
43707;BME280;61348;53.392;-6.248;2023-06-22T03:15:58;101242.44;;;17.54;75.41
43707;BME280;61348;53.392;-6.248;2023-06-22T03:18:45;101242.00;;;17.52;75.75
43707;BME280;61348;53.392;-6.248;2023-06-22T03:21:32;101239.13;;;17.48;75.92
43707;BME280;61348;53.392;-6.248;2023-06-22T03:24:19;101233.13;;;17.46;76.24
43707;BME280;61348;53.392;-6.248;2023-06-22T03:27:07;101237.16;;;17.49;76.64
43707;BME280;61348;53.392;-6.248;2023-06-22T03:29:56;101237.97;;;17.49;76.82
43707;BME280;61348;53.392;-6.248;2023-06-22T03:32:43;101227.19;;;17.51;77.02
43707;BME280;61348;53.392;-6.248;2023-06-22T03:35:30;101233.22;;;17.53;77.34
43707;BME280;61348;53.392;-6.248;2023-06-22T03:38:18;101232.88;;;17.55;77.19
43707;BME280;61348;53.392;-6.248;2023-06-22T03:41:05;101228.34;;;17.50;77.42
43707;BME280;61348;53.392;-6.248;2023-06-22T03:43:52;101235.09;;;17.46;77.92
43707;BME280;61348;53.392;-6.248;2023-06-22T03:46:39;101232.69;;;17.44;77.68
43707;BME280;61348;53.392;-6.248;2023-06-22T03:49:26;101234.63;;;17.40;77.92
43707;BME280;61348;53.392;-6.248;2023-06-22T03:52:13;101239.31;;;17.33;78.16
43707;BME280;61348;53.392;-6.248;2023-06-22T03:55:00;101236.06;;;17.27;78.38
43707;BME280;61348;53.392;-6.248;2023-06-22T03:57:47;101235.97;;;17.20;78.55
43707;BME280;61348;53.392;-6.248;2023-06-22T04:00:35;101242.25;;;17.14;78.77
43707;BME280;61348;53.392;-6.248;2023-06-22T04:03:22;101240.59;;;17.09;78.86
43707;BME280;61348;53.392;-6.248;2023-06-22T04:06:09;101245.28;;;17.01;79.22
43707;BME280;61348;53.392;-6.248;2023-06-22T04:08:56;101243.22;;;16.98;79.23
43707;BME280;61348;53.392;-6.248;2023-06-22T04:11:43;101245.97;;;16.95;79.40
43707;BME280;61348;53.392;-6.248;2023-06-22T04:14:30;101253.13;;;16.92;79.55
43707;BME280;61348;53.392;-6.248;2023-06-22T04:17:17;101251.06;;;16.89;79.81
43707;BME280;61348;53.392;-6.248;2023-06-22T04:20:06;101255.41;;;16.87;79.89
43707;BME280;61348;53.392;-6.248;2023-06-22T04:22:54;101254.56;;;16.83;79.82
43707;BME280;61348;53.392;-6.248;2023-06-22T04:25:41;101264.13;;;16.82;79.88
43707;BME280;61348;53.392;-6.248;2023-06-22T04:28:28;101260.91;;;16.80;80.08
43707;BME280;61348;53.392;-6.248;2023-06-22T04:31:15;101262.06;;;16.79;80.38
43707;BME280;61348;53.392;-6.248;2023-06-22T04:34:03;101273.72;;;16.81;80.33
43707;BME280;61348;53.392;-6.248;2023-06-22T04:36:54;101276.13;;;16.82;80.41
43707;BME280;61348;53.392;-6.248;2023-06-22T04:39:42;101274.88;;;16.80;80.67
43707;BME280;61348;53.392;-6.248;2023-06-22T04:42:30;101280.88;;;16.78;80.67
43707;BME280;61348;53.392;-6.248;2023-06-22T04:45:17;101270.03;;;16.77;80.78
43707;BME280;61348;53.392;-6.248;2023-06-22T04:48:05;101274.88;;;16.80;80.83
43707;BME280;61348;53.392;-6.248;2023-06-22T04:50:52;101277.69;;;16.80;80.88
43707;BME280;61348;53.392;-6.248;2023-06-22T04:53:39;101272.09;;;16.80;80.84
43707;BME280;61348;53.392;-6.248;2023-06-22T04:56:28;101274.06;;;16.79;80.89
43707;BME280;61348;53.392;-6.248;2023-06-22T04:59:15;101274.88;;;16.80;81.28
43707;BME280;61348;53.392;-6.248;2023-06-22T05:02:05;101276.06;;;16.79;81.08
43707;BME280;61348;53.392;-6.248;2023-06-22T05:04:55;101275.31;;;16.82;81.23
43707;BME280;61348;53.392;-6.248;2023-06-22T05:07:45;101280.16;;;16.85;81.28
43707;BME280;61348;53.392;-6.248;2023-06-22T05:10:35;101277.78;;;16.87;81.31
43707;BME280;61348;53.392;-6.248;2023-06-22T05:13:22;101270.63;;;16.89;81.48
43707;BME280;61348;53.392;-6.248;2023-06-22T05:16:13;101257.13;;;16.91;81.51
43707;BME280;61348;53.392;-6.248;2023-06-22T05:19:00;101269.09;;;16.92;81.54
43707;BME280;61348;53.392;-6.248;2023-06-22T05:21:50;101285.50;;;16.93;81.65
43707;BME280;61348;53.392;-6.248;2023-06-22T05:24:37;101287.09;;;16.94;81.76
43707;BME280;61348;53.392;-6.248;2023-06-22T05:27:24;101290.72;;;16.95;81.66
43707;BME280;61348;53.392;-6.248;2023-06-22T05:30:11;101287.16;;;16.98;81.86
43707;BME280;61348;53.392;-6.248;2023-06-22T05:32:59;101284.38;;;16.98;81.98
43707;BME280;61348;53.392;-6.248;2023-06-22T05:35:46;101286.84;;;17.03;81.92
43707;BME280;61348;53.392;-6.248;2023-06-22T05:38:33;101291.75;;;17.10;82.11
43707;BME280;61348;53.392;-6.248;2023-06-22T05:41:20;101281.47;;;17.17;81.99
43707;BME280;61348;53.392;-6.248;2023-06-22T05:44:08;101293.09;;;17.19;81.88
43707;BME280;61348;53.392;-6.248;2023-06-22T05:46:55;101285.94;;;17.22;81.98
43707;BME280;61348;53.392;-6.248;2023-06-22T05:49:42;101287.97;;;17.25;81.90
43707;BME280;61348;53.392;-6.248;2023-06-22T05:52:29;101290.84;;;17.28;81.87
43707;BME280;61348;53.392;-6.248;2023-06-22T05:55:16;101289.66;;;17.29;82.06
43707;BME280;61348;53.392;-6.248;2023-06-22T05:58:05;101284.03;;;17.29;81.92
43707;BME280;61348;53.392;-6.248;2023-06-22T06:00:52;101290.47;;;17.30;81.88
43707;BME280;61348;53.392;-6.248;2023-06-22T06:03:39;101285.59;;;17.27;82.00
43707;BME280;61348;53.392;-6.248;2023-06-22T06:06:28;101292.78;;;17.24;82.08
43707;BME280;61348;53.392;-6.248;2023-06-22T06:09:15;101289.56;;;17.22;82.13
43707;BME280;61348;53.392;-6.248;2023-06-22T06:12:02;101295.91;;;17.19;82.18
43707;BME280;61348;53.392;-6.248;2023-06-22T06:14:50;101294.28;;;17.18;82.21
43707;BME280;61348;53.392;-6.248;2023-06-22T06:17:52;101298.34;;;17.21;82.60
43707;BME280;61348;53.392;-6.248;2023-06-22T06:20:39;101294.41;;;17.25;82.58
43707;BME280;61348;53.392;-6.248;2023-06-22T06:23:26;101292.13;;;17.34;82.50
43707;BME280;61348;53.392;-6.248;2023-06-22T06:26:13;101290.25;;;17.42;82.49
43707;BME280;61348;53.392;-6.248;2023-06-22T06:29:03;101287.47;;;17.45;82.50
43707;BME280;61348;53.392;-6.248;2023-06-22T06:31:50;101298.69;;;17.45;82.20
43707;BME280;61348;53.392;-6.248;2023-06-22T06:34:40;101297.50;;;17.46;82.31
43707;BME280;61348;53.392;-6.248;2023-06-22T06:37:27;101297.94;;;17.48;82.16
43707;BME280;61348;53.392;-6.248;2023-06-22T06:40:15;101292.38;;;17.52;82.20
43707;BME280;61348;53.392;-6.248;2023-06-22T06:43:03;101309.25;;;17.55;82.08
43707;BME280;61348;53.392;-6.248;2023-06-22T06:45:50;101304.56;;;17.63;82.41
43707;BME280;61348;53.392;-6.248;2023-06-22T06:48:38;101305.13;;;17.76;82.30
43707;BME280;61348;53.392;-6.248;2023-06-22T06:51:26;101307.22;;;17.82;82.03
43707;BME280;61348;53.392;-6.248;2023-06-22T06:54:13;101318.88;;;17.88;82.12
43707;BME280;61348;53.392;-6.248;2023-06-22T06:57:00;101311.72;;;17.90;82.19
43707;BME280;61348;53.392;-6.248;2023-06-22T06:59:49;101313.84;;;18.00;82.13
43707;BME280;61348;53.392;-6.248;2023-06-22T07:02:40;101317.09;;;18.06;81.91
43707;BME280;61348;53.392;-6.248;2023-06-22T07:05:28;101320.34;;;18.08;82.12
43707;BME280;61348;53.392;-6.248;2023-06-22T07:08:15;101320.00;;;18.13;82.23
43707;BME280;61348;53.392;-6.248;2023-06-22T07:11:03;101319.69;;;18.21;82.55
43707;BME280;61348;53.392;-6.248;2023-06-22T07:13:50;101316.56;;;18.27;82.73
43707;BME280;61348;53.392;-6.248;2023-06-22T07:16:37;101325.50;;;18.39;82.89
43707;BME280;61348;53.392;-6.248;2023-06-22T07:19:25;101321.66;;;18.51;83.45
43707;BME280;61348;53.392;-6.248;2023-06-22T07:22:13;101319.75;;;18.62;84.04
43707;BME280;61348;53.392;-6.248;2023-06-22T07:25:00;101316.66;;;18.70;84.47
43707;BME280;61348;53.392;-6.248;2023-06-22T07:27:59;101311.19;;;18.88;nan
43707;BME280;61348;53.392;-6.248;2023-06-22T07:30:48;101314.16;;;19.06;84.81
43707;BME280;61348;53.392;-6.248;2023-06-22T07:33:35;101318.66;;;19.21;84.84
43707;BME280;61348;53.392;-6.248;2023-06-22T07:36:22;101330.53;;;19.48;85.16
43707;BME280;61348;53.392;-6.248;2023-06-22T07:39:09;101330.22;;;19.63;84.19
43707;BME280;61348;53.392;-6.248;2023-06-22T07:41:56;101327.09;;;19.86;84.64
43707;BME280;61348;53.392;-6.248;2023-06-22T07:44:43;101324.91;;;20.34;85.04
43707;BME280;61348;53.392;-6.248;2023-06-22T07:47:30;101331.44;;;20.87;84.12
43707;BME280;61348;53.392;-6.248;2023-06-22T07:50:22;101343.13;;;21.46;82.64
43707;BME280;61348;53.392;-6.248;2023-06-22T07:53:09;101348.97;;;22.18;80.53
43707;BME280;61348;53.392;-6.248;2023-06-22T07:55:56;101346.66;;;22.79;76.30
43707;BME280;61348;53.392;-6.248;2023-06-22T07:58:43;101347.03;;;23.29;73.07
43707;BME280;61348;53.392;-6.248;2023-06-22T08:01:30;101343.94;;;23.13;69.85
43707;BME280;61348;53.392;-6.248;2023-06-22T08:04:18;101338.88;;;23.41;68.35
43707;BME280;61348;53.392;-6.248;2023-06-22T08:07:05;101347.16;;;23.96;66.26
43707;BME280;61348;53.392;-6.248;2023-06-22T08:09:52;101342.16;;;24.68;63.96
43707;BME280;61348;53.392;-6.248;2023-06-22T08:12:40;101333.78;;;25.37;61.95
43707;BME280;61348;53.392;-6.248;2023-06-22T08:15:27;101350.41;;;26.01;60.04
43707;BME280;61348;53.392;-6.248;2023-06-22T08:18:15;101352.25;;;26.31;57.55
43707;BME280;61348;53.392;-6.248;2023-06-22T08:21:03;101354.03;;;26.77;55.63
43707;BME280;61348;53.392;-6.248;2023-06-22T08:23:51;101350.53;;;27.22;54.23
43707;BME280;61348;53.392;-6.248;2023-06-22T08:26:39;101353.53;;;27.63;52.52
43707;BME280;61348;53.392;-6.248;2023-06-22T08:29:26;101355.56;;;27.91;51.43
43707;BME280;61348;53.392;-6.248;2023-06-22T08:32:13;101360.28;;;28.26;50.04
43707;BME280;61348;53.392;-6.248;2023-06-22T08:35:00;101363.28;;;28.61;48.98
43707;BME280;61348;53.392;-6.248;2023-06-22T08:37:47;101359.47;;;28.80;47.75
43707;BME280;61348;53.392;-6.248;2023-06-22T08:40:38;101357.16;;;29.00;46.98
43707;BME280;61348;53.392;-6.248;2023-06-22T08:43:25;101372.19;;;29.13;46.38
43707;BME280;61348;53.392;-6.248;2023-06-22T08:46:12;101363.94;;;29.53;45.15
43707;BME280;61348;53.392;-6.248;2023-06-22T08:49:00;101358.19;;;29.66;44.29
43707;BME280;61348;53.392;-6.248;2023-06-22T08:51:47;101366.41;;;29.64;43.13
43707;BME280;61348;53.392;-6.248;2023-06-22T08:54:36;101363.31;;;29.83;42.81
43707;BME280;61348;53.392;-6.248;2023-06-22T08:57:23;101368.34;;;30.01;42.03
43707;BME280;61348;53.392;-6.248;2023-06-22T09:00:11;101357.59;;;30.05;41.55
43707;BME280;61348;53.392;-6.248;2023-06-22T09:03:03;101363.03;;;30.12;41.45
43707;BME280;61348;53.392;-6.248;2023-06-22T09:05:51;101360.63;;;30.10;40.94
43707;BME280;61348;53.392;-6.248;2023-06-22T09:08:38;101359.06;;;30.09;40.52
43707;BME280;61348;53.392;-6.248;2023-06-22T09:11:26;101362.75;;;30.19;40.18
43707;BME280;61348;53.392;-6.248;2023-06-22T09:14:13;101371.09;;;30.26;40.30
43707;BME280;61348;53.392;-6.248;2023-06-22T09:17:00;101372.81;;;30.45;39.60
43707;BME280;61348;53.392;-6.248;2023-06-22T09:19:47;101374.19;;;30.62;39.29
43707;BME280;61348;53.392;-6.248;2023-06-22T09:22:34;101372.91;;;30.63;39.05
43707;BME280;61348;53.392;-6.248;2023-06-22T09:25:21;101372.75;;;30.67;38.75
43707;BME280;61348;53.392;-6.248;2023-06-22T09:28:08;101362.03;;;30.06;39.05
43707;BME280;61348;53.392;-6.248;2023-06-22T09:30:55;101368.03;;;29.65;39.73
43707;BME280;61348;53.392;-6.248;2023-06-22T09:33:45;101353.47;;;29.37;40.12
43707;BME280;61348;53.392;-6.248;2023-06-22T09:36:33;101360.09;;;29.34;40.36
43707;BME280;61348;53.392;-6.248;2023-06-22T09:39:20;101357.19;;;29.60;40.01
43707;BME280;61348;53.392;-6.248;2023-06-22T09:42:07;101352.63;;;29.62;39.47
43707;BME280;61348;53.392;-6.248;2023-06-22T09:44:54;101348.38;;;29.67;40.05
43707;BME280;61348;53.392;-6.248;2023-06-22T09:47:41;101353.22;;;29.91;39.40
43707;BME280;61348;53.392;-6.248;2023-06-22T09:50:29;101355.47;;;29.96;39.15
43707;BME280;61348;53.392;-6.248;2023-06-22T09:53:17;101344.59;;;29.10;39.77
43707;BME280;61348;53.392;-6.248;2023-06-22T09:56:04;101349.75;;;28.90;40.28
43707;BME280;61348;53.392;-6.248;2023-06-22T09:58:53;101346.66;;;28.05;40.69
43707;BME280;61348;53.392;-6.248;2023-06-22T10:01:41;101354.75;;;27.91;42.01
43707;BME280;61348;53.392;-6.248;2023-06-22T10:04:28;101353.22;;;28.44;41.42
43707;BME280;61348;53.392;-6.248;2023-06-22T10:07:17;101354.06;;;28.57;40.98
43707;BME280;61348;53.392;-6.248;2023-06-22T10:10:04;101354.19;;;28.78;40.96
43707;BME280;61348;53.392;-6.248;2023-06-22T10:13:07;101358.28;;;28.65;40.76
43707;BME280;61348;53.392;-6.248;2023-06-22T10:15:55;101360.94;;;28.30;40.92
43707;BME280;61348;53.392;-6.248;2023-06-22T10:18:43;101366.28;;;27.87;41.50
43707;BME280;61348;53.392;-6.248;2023-06-22T10:21:30;101362.59;;;27.58;42.02
43707;BME280;61348;53.392;-6.248;2023-06-22T10:24:17;101369.06;;;27.74;42.22
43707;BME280;61348;53.392;-6.248;2023-06-22T10:27:04;101368.34;;;27.99;42.07
43707;BME280;61348;53.392;-6.248;2023-06-22T10:29:51;101364.00;;;28.11;41.87
43707;BME280;61348;53.392;-6.248;2023-06-22T10:32:39;101366.78;;;27.98;41.53
43707;BME280;61348;53.392;-6.248;2023-06-22T10:35:26;101373.31;;;27.83;42.13
43707;BME280;61348;53.392;-6.248;2023-06-22T10:38:14;101359.56;;;27.65;43.09
43707;BME280;61348;53.392;-6.248;2023-06-22T10:41:01;101363.44;;;27.42;42.67
43707;BME280;61348;53.392;-6.248;2023-06-22T10:43:49;101367.03;;;26.94;43.37
43707;BME280;61348;53.392;-6.248;2023-06-22T10:46:36;101366.59;;;26.60;43.62
43707;BME280;61348;53.392;-6.248;2023-06-22T10:49:23;101362.50;;;26.45;44.41
43707;BME280;61348;53.392;-6.248;2023-06-22T10:52:10;101356.69;;;26.13;44.83
43707;BME280;61348;53.392;-6.248;2023-06-22T10:54:57;101362.13;;;25.84;45.35
43707;BME280;61348;53.392;-6.248;2023-06-22T10:57:44;101362.81;;;25.22;46.19
43707;BME280;61348;53.392;-6.248;2023-06-22T11:00:34;101360.00;;;24.95;46.67
43707;BME280;61348;53.392;-6.248;2023-06-22T11:03:21;101358.13;;;24.85;47.18
43707;BME280;61348;53.392;-6.248;2023-06-22T11:06:08;101353.69;;;24.84;47.55
43707;BME280;61348;53.392;-6.248;2023-06-22T11:08:55;101356.47;;;24.88;47.62
43707;BME280;61348;53.392;-6.248;2023-06-22T11:11:58;101356.19;;;24.78;47.87
43707;BME280;61348;53.392;-6.248;2023-06-22T11:14:46;101363.72;;;24.62;48.61
43707;BME280;61348;53.392;-6.248;2023-06-22T11:17:33;101363.94;;;24.44;48.82
43707;BME280;61348;53.392;-6.248;2023-06-22T11:20:20;101359.03;;;24.18;49.28
43707;BME280;61348;53.392;-6.248;2023-06-22T11:23:07;101371.72;;;24.06;50.15
43707;BME280;61348;53.392;-6.248;2023-06-22T11:25:54;101381.03;;;24.03;50.34
43707;BME280;61348;53.392;-6.248;2023-06-22T11:28:42;101382.03;;;23.86;50.74
43707;BME280;61348;53.392;-6.248;2023-06-22T11:31:29;101380.50;;;23.78;50.62
43707;BME280;61348;53.392;-6.248;2023-06-22T11:34:16;101376.56;;;23.69;50.99
43707;BME280;61348;53.392;-6.248;2023-06-22T11:37:03;101370.13;;;23.64;51.06
43707;BME280;61348;53.392;-6.248;2023-06-22T11:39:50;101376.22;;;23.63;51.11
43707;BME280;61348;53.392;-6.248;2023-06-22T11:42:52;101377.03;;;23.63;51.60
43707;BME280;61348;53.392;-6.248;2023-06-22T11:45:39;101370.81;;;23.79;51.63
43707;BME280;61348;53.392;-6.248;2023-06-22T11:48:26;101365.50;;;23.85;51.85
43707;BME280;61348;53.392;-6.248;2023-06-22T11:51:13;101373.16;;;23.84;51.89
43707;BME280;61348;53.392;-6.248;2023-06-22T11:54:00;101371.38;;;23.63;51.97
43707;BME280;61348;53.392;-6.248;2023-06-22T11:56:48;101363.34;;;23.58;52.04
43707;BME280;61348;53.392;-6.248;2023-06-22T11:59:35;101358.56;;;23.48;52.61
43707;BME280;61348;53.392;-6.248;2023-06-22T12:02:22;101363.34;;;23.58;52.78
43707;BME280;61348;53.392;-6.248;2023-06-22T12:05:10;101375.38;;;23.66;52.99
43707;BME280;61348;53.392;-6.248;2023-06-22T12:07:57;101373.03;;;23.57;53.43
43707;BME280;61348;53.392;-6.248;2023-06-22T12:10:44;101371.56;;;23.42;53.57
43707;BME280;61348;53.392;-6.248;2023-06-22T12:13:32;101379.25;;;23.42;53.85
43707;BME280;61348;53.392;-6.248;2023-06-22T12:16:19;101377.31;;;23.28;54.10
43707;BME280;61348;53.392;-6.248;2023-06-22T12:19:08;101378.59;;;23.20;54.61
43707;BME280;61348;53.392;-6.248;2023-06-22T12:21:55;101382.69;;;23.12;55.10
43707;BME280;61348;53.392;-6.248;2023-06-22T12:24:42;101373.72;;;23.24;55.14
43707;BME280;61348;53.392;-6.248;2023-06-22T12:27:29;101384.91;;;23.38;54.89
43707;BME280;61348;53.392;-6.248;2023-06-22T12:30:17;101384.00;;;23.48;55.11
43707;BME280;61348;53.392;-6.248;2023-06-22T12:33:04;101373.13;;;23.88;53.92
43707;BME280;61348;53.392;-6.248;2023-06-22T12:35:51;101374.88;;;24.12;54.05
43707;BME280;61348;53.392;-6.248;2023-06-22T12:38:38;101373.41;;;24.34;53.80
43707;BME280;61348;53.392;-6.248;2023-06-22T12:41:25;101376.81;;;24.22;53.92
43707;BME280;61348;53.392;-6.248;2023-06-22T12:44:12;101382.50;;;24.18;54.14
43707;BME280;61348;53.392;-6.248;2023-06-22T12:46:59;101376.69;;;24.29;53.28
43707;BME280;61348;53.392;-6.248;2023-06-22T12:49:47;101385.00;;;24.43;52.63
43707;BME280;61348;53.392;-6.248;2023-06-22T12:52:36;101386.84;;;24.57;51.87
43707;BME280;61348;53.392;-6.248;2023-06-22T12:55:25;101381.19;;;24.57;51.38
43707;BME280;61348;53.392;-6.248;2023-06-22T12:58:12;101378.41;;;24.53;50.22
43707;BME280;61348;53.392;-6.248;2023-06-22T13:00:59;101372.63;;;24.60;50.24
43707;BME280;61348;53.392;-6.248;2023-06-22T13:03:47;101372.91;;;24.69;50.03
43707;BME280;61348;53.392;-6.248;2023-06-22T13:06:34;101365.16;;;24.73;50.07
43707;BME280;61348;53.392;-6.248;2023-06-22T13:09:21;101375.34;;;24.98;50.20
43707;BME280;61348;53.392;-6.248;2023-06-22T13:12:08;101366.25;;;25.10;49.69
43707;BME280;61348;53.392;-6.248;2023-06-22T13:14:55;101371.56;;;25.31;49.64
43707;BME280;61348;53.392;-6.248;2023-06-22T13:17:42;101370.25;;;25.35;49.98
43707;BME280;61348;53.392;-6.248;2023-06-22T13:20:29;101365.75;;;25.38;49.88
43707;BME280;61348;53.392;-6.248;2023-06-22T13:23:16;101361.31;;;25.37;50.50
43707;BME280;61348;53.392;-6.248;2023-06-22T13:26:04;101368.00;;;25.50;50.69
43707;BME280;61348;53.392;-6.248;2023-06-22T13:28:51;101369.81;;;25.60;50.81
43707;BME280;61348;53.392;-6.248;2023-06-22T13:31:38;101372.97;;;25.66;50.90
43707;BME280;61348;53.392;-6.248;2023-06-22T13:34:25;101369.78;;;25.64;50.94
43707;BME280;61348;53.392;-6.248;2023-06-22T13:37:12;101369.72;;;25.67;51.24
43707;BME280;61348;53.392;-6.248;2023-06-22T13:39:59;101370.38;;;25.75;51.48
43707;BME280;61348;53.392;-6.248;2023-06-22T13:42:47;101369.97;;;25.96;51.18
43707;BME280;61348;53.392;-6.248;2023-06-22T13:45:34;101369.53;;;25.97;51.08
43707;BME280;61348;53.392;-6.248;2023-06-22T13:48:21;101370.84;;;25.93;51.39
43707;BME280;61348;53.392;-6.248;2023-06-22T13:51:10;101365.81;;;26.00;51.72
43707;BME280;61348;53.392;-6.248;2023-06-22T13:53:57;101373.16;;;25.98;51.62
43707;BME280;61348;53.392;-6.248;2023-06-22T13:56:44;101366.63;;;26.01;51.30
43707;BME280;61348;53.392;-6.248;2023-06-22T13:59:31;101368.69;;;26.20;51.14
43707;BME280;61348;53.392;-6.248;2023-06-22T14:02:18;101369.03;;;26.42;51.38
43707;BME280;61348;53.392;-6.248;2023-06-22T14:05:06;101361.16;;;26.49;50.96
43707;BME280;61348;53.392;-6.248;2023-06-22T14:07:53;101356.06;;;26.60;50.96
43707;BME280;61348;53.392;-6.248;2023-06-22T14:10:40;101353.84;;;26.68;50.65
43707;BME280;61348;53.392;-6.248;2023-06-22T14:13:27;101359.41;;;26.72;50.26
43707;BME280;61348;53.392;-6.248;2023-06-22T14:16:14;101355.28;;;26.76;49.98
43707;BME280;61348;53.392;-6.248;2023-06-22T14:19:01;101354.47;;;26.76;49.76
43707;BME280;61348;53.392;-6.248;2023-06-22T14:21:48;101352.97;;;26.71;50.44
43707;BME280;61348;53.392;-6.248;2023-06-22T14:24:35;101357.47;;;26.69;50.00
43707;BME280;61348;53.392;-6.248;2023-06-22T14:27:22;101359.25;;;26.63;50.13
43707;BME280;61348;53.392;-6.248;2023-06-22T14:30:10;101362.63;;;26.74;50.03
43707;BME280;61348;53.392;-6.248;2023-06-22T14:32:57;101352.44;;;26.76;49.63